EGQK

RAF Kinloss Airport

Kinloss, United Kingdom
METAR EGQK 201250Z AUTO 24021KT 9999 FEW033/// 17/12 Q1019
Observed Flight Rules
Oct-20 @ 12:50 UTC (41 minutes ago) Visual Flight Rules
Wind Visibility Clouds
240° at 21 knots 10,000+ meters
  • Few at 3,300' AGL
Temperatures Readings
Current 17°C / 63°F
Dewpoint 12°C / 54°F
Humidity 73%
Altimeter 30.09" Hg
Pressure 1019 hPa
Elevation 7
METAR EGQK 201250Z AUTO 24021KT 9999 FEW033/// 17/12 Q1019
Observed Flight Rules
Oct-20 @ 12:50 UTC
(41 minutes ago)
VFR
Wind Visibility
240° at 21 knots 10,000+ meters
Clouds
  • Few at 3,300' AGL
Temperature Dewpoint
17°C / 63°F 12°C / 54°F
Humidity Altimeter Pressure
73% 30.09" Hg 1019 hPa